sensor_id;sensor_type;location;lat;lon;timestamp;pressure;altitude;pressure_sealevel;temperature;humidity
13050;BME280;6591;51.446;5.404;2024-02-28T00:01:03;101737.22;;;8.57;55.08
13050;BME280;6591;51.446;5.404;2024-02-28T00:03:30;101728.41;;;8.57;55.11
13050;BME280;6591;51.446;5.404;2024-02-28T00:05:59;101728.41;;;8.57;54.92
13050;BME280;6591;51.446;5.404;2024-02-28T00:08:26;101731.94;;;8.57;54.98
13050;BME280;6591;51.446;5.404;2024-02-28T00:10:59;101736.34;;;8.57;55.03
13050;BME280;6591;51.446;5.404;2024-02-28T00:13:26;101737.22;;;8.57;55.70
13050;BME280;6591;51.446;5.404;2024-02-28T00:15:58;101728.41;;;8.57;55.91
13050;BME280;6591;51.446;5.404;2024-02-28T00:18:32;101732.63;;;8.64;56.32
13050;BME280;6591;51.446;5.404;2024-02-28T00:21:07;101734.28;;;8.69;56.01
13050;BME280;6591;51.446;5.404;2024-02-28T00:23:37;101733.34;;;8.72;55.93
13050;BME280;6591;51.446;5.404;2024-02-28T00:26:05;101731.47;;;8.77;56.04
13050;BME280;6591;51.446;5.404;2024-02-28T00:28:32;101728.72;;;8.80;56.54
13050;BME280;6591;51.446;5.404;2024-02-28T00:31:00;101719.84;;;8.84;56.69
13050;BME280;6591;51.446;5.404;2024-02-28T00:33:28;101719.66;;;8.90;56.67
13050;BME280;6591;51.446;5.404;2024-02-28T00:35:58;101717.81;;;8.93;56.64
13050;BME280;6591;51.446;5.404;2024-02-28T00:38:25;101715.06;;;8.98;56.21
13050;BME280;6591;51.446;5.404;2024-02-28T00:40:54;101706.16;;;9.01;56.43
13050;BME280;6591;51.446;5.404;2024-02-28T00:43:21;101706.91;;;9.06;56.35
13050;BME280;6591;51.446;5.404;2024-02-28T00:45:48;101708.66;;;9.07;56.13
13050;BME280;6591;51.446;5.404;2024-02-28T00:48:16;101708.63;;;9.08;55.84
13050;BME280;6591;51.446;5.404;2024-02-28T00:50:43;101715.66;;;9.09;55.95
13050;BME280;6591;51.446;5.404;2024-02-28T00:53:10;101714.78;;;9.09;56.29
13050;BME280;6591;51.446;5.404;2024-02-28T00:55:37;101714.75;;;9.10;55.76
13050;BME280;6591;51.446;5.404;2024-02-28T00:58:04;101709.50;;;9.09;55.68
13050;BME280;6591;51.446;5.404;2024-02-28T01:00:31;101708.63;;;9.08;55.52
13050;BME280;6591;51.446;5.404;2024-02-28T01:02:59;101700.69;;;9.07;54.80
13050;BME280;6591;51.446;5.404;2024-02-28T01:05:26;101700.75;;;9.05;55.13
13050;BME280;6591;51.446;5.404;2024-02-28T01:07:53;101699.06;;;9.01;55.25
13050;BME280;6591;51.446;5.404;2024-02-28T01:10:20;101706.22;;;8.99;55.36
13050;BME280;6591;51.446;5.404;2024-02-28T01:12:48;101700.94;;;8.98;55.41
13050;BME280;6591;51.446;5.404;2024-02-28T01:15:16;101702.72;;;8.97;55.46
13050;BME280;6591;51.446;5.404;2024-02-28T01:17:43;101697.41;;;8.99;55.87
13050;BME280;6591;51.446;5.404;2024-02-28T01:20:10;101697.41;;;8.97;55.48
13050;BME280;6591;51.446;5.404;2024-02-28T01:22:37;101693.00;;;8.98;55.13
13050;BME280;6591;51.446;5.404;2024-02-28T01:25:05;101693.94;;;8.95;55.23
13050;BME280;6591;51.446;5.404;2024-02-28T01:27:33;101699.31;;;8.92;54.79
13050;BME280;6591;51.446;5.404;2024-02-28T01:30:01;101700.31;;;8.88;54.15
13050;BME280;6591;51.446;5.404;2024-02-28T01:32:29;101696.03;;;8.82;53.97
13050;BME280;6591;51.446;5.404;2024-02-28T01:34:57;101702.44;;;8.74;53.82
13050;BME280;6591;51.446;5.404;2024-02-28T01:37:24;101707.91;;;8.65;53.33
13050;BME280;6591;51.446;5.404;2024-02-28T01:39:51;101713.44;;;8.56;53.13
13050;BME280;6591;51.446;5.404;2024-02-28T01:42:19;101713.66;;;8.46;52.94
13050;BME280;6591;51.446;5.404;2024-02-28T01:44:48;101715.66;;;8.35;53.38
13050;BME280;6591;51.446;5.404;2024-02-28T01:47:16;101725.47;;;8.30;53.27
13050;BME280;6591;51.446;5.404;2024-02-28T01:49:45;101717.72;;;8.21;53.27
13050;BME280;6591;51.446;5.404;2024-02-28T01:52:14;101717.75;;;8.18;53.52
13050;BME280;6591;51.446;5.404;2024-02-28T01:54:45;101715.19;;;8.15;54.06
13050;BME280;6591;51.446;5.404;2024-02-28T01:57:13;101714.41;;;8.10;54.10
13050;BME280;6591;51.446;5.404;2024-02-28T01:59:41;101709.19;;;8.07;54.23
13050;BME280;6591;51.446;5.404;2024-02-28T02:02:09;101715.34;;;8.06;53.81
13050;BME280;6591;51.446;5.404;2024-02-28T02:04:38;101711.94;;;8.01;53.63
13050;BME280;6591;51.446;5.404;2024-02-28T02:07:07;101705.88;;;7.96;53.73
13050;BME280;6591;51.446;5.404;2024-02-28T02:09:39;101719.97;;;7.96;54.37
13050;BME280;6591;51.446;5.404;2024-02-28T02:12:07;101716.44;;;7.96;54.38
13050;BME280;6591;51.446;5.404;2024-02-28T02:14:35;101723.53;;;7.95;54.27
13050;BME280;6591;51.446;5.404;2024-02-28T02:17:02;101725.34;;;7.93;54.53
13050;BME280;6591;51.446;5.404;2024-02-28T02:19:30;101742.97;;;7.93;54.27
13050;BME280;6591;51.446;5.404;2024-02-28T02:21:58;101735.94;;;7.92;53.72
13050;BME280;6591;51.446;5.404;2024-02-28T02:24:27;101727.22;;;7.87;53.72
13050;BME280;6591;51.446;5.404;2024-02-28T02:27:02;101726.44;;;7.82;53.88
13050;BME280;6591;51.446;5.404;2024-02-28T02:29:31;101720.41;;;7.75;53.16
13050;BME280;6591;51.446;5.404;2024-02-28T02:31:59;101731.03;;;7.74;53.62
13050;BME280;6591;51.446;5.404;2024-02-28T02:34:26;101718.03;;;7.63;53.27
13050;BME280;6591;51.446;5.404;2024-02-28T02:36:53;101716.34;;;7.57;52.99
13050;BME280;6591;51.446;5.404;2024-02-28T02:39:21;101729.66;;;7.53;53.57
13050;BME280;6591;51.446;5.404;2024-02-28T02:41:48;101732.41;;;7.47;53.58
13050;BME280;6591;51.446;5.404;2024-02-28T02:44:15;101726.34;;;7.40;53.67
13050;BME280;6591;51.446;5.404;2024-02-28T02:46:42;101736.84;;;7.43;54.86
13050;BME280;6591;51.446;5.404;2024-02-28T02:49:09;101729.88;;;7.39;55.49
13050;BME280;6591;51.446;5.404;2024-02-28T02:51:36;101737.72;;;7.45;55.82
13050;BME280;6591;51.446;5.404;2024-02-28T02:54:09;101733.31;;;7.44;56.14
13050;BME280;6591;51.446;5.404;2024-02-28T02:56:36;101737.72;;;7.45;55.71
13050;BME280;6591;51.446;5.404;2024-02-28T02:59:07;101736.81;;;7.46;55.18
13050;BME280;6591;51.446;5.404;2024-02-28T03:01:34;101732.41;;;7.48;55.19
13050;BME280;6591;51.446;5.404;2024-02-28T03:04:02;101729.78;;;7.47;55.16
13050;BME280;6591;51.446;5.404;2024-02-28T03:06:37;101745.63;;;7.45;54.73
13050;BME280;6591;51.446;5.404;2024-02-28T03:09:04;101732.50;;;7.41;55.00
13050;BME280;6591;51.446;5.404;2024-02-28T03:11:31;101738.72;;;7.38;54.46
13050;BME280;6591;51.446;5.404;2024-02-28T03:13:58;101743.19;;;7.35;55.08
13050;BME280;6591;51.446;5.404;2024-02-28T03:16:25;101735.31;;;7.32;54.34
13050;BME280;6591;51.446;5.404;2024-02-28T03:18:53;101745.03;;;7.30;54.83
13050;BME280;6591;51.446;5.404;2024-02-28T03:21:23;101745.09;;;7.27;54.68
13050;BME280;6591;51.446;5.404;2024-02-28T03:23:50;101751.28;;;7.26;54.80
13050;BME280;6591;51.446;5.404;2024-02-28T03:26:18;101742.47;;;7.25;55.55
13050;BME280;6591;51.446;5.404;2024-02-28T03:28:48;101746.00;;;7.24;55.02
13050;BME280;6591;51.446;5.404;2024-02-28T03:31:17;101744.22;;;7.26;55.42
13050;BME280;6591;51.446;5.404;2024-02-28T03:33:45;101738.06;;;7.27;54.94
13050;BME280;6591;51.446;5.404;2024-02-28T03:36:14;101739.81;;;7.27;55.68
13050;BME280;6591;51.446;5.404;2024-02-28T03:38:41;101730.13;;;7.27;55.40
13050;BME280;6591;51.446;5.404;2024-02-28T03:41:13;101733.59;;;7.29;55.64
13050;BME280;6591;51.446;5.404;2024-02-28T03:43:40;101731.84;;;7.28;55.40
13050;BME280;6591;51.446;5.404;2024-02-28T03:46:07;101735.34;;;7.30;55.92
13050;BME280;6591;51.446;5.404;2024-02-28T03:48:35;101727.34;;;7.33;55.66
13050;BME280;6591;51.446;5.404;2024-02-28T03:51:02;101733.56;;;7.32;55.54
13050;BME280;6591;51.446;5.404;2024-02-28T03:53:29;101733.56;;;7.32;55.09
13050;BME280;6591;51.446;5.404;2024-02-28T03:55:56;101733.56;;;7.31;55.08
13050;BME280;6591;51.446;5.404;2024-02-28T03:58:28;101719.53;;;7.29;55.22
13050;BME280;6591;51.446;5.404;2024-02-28T04:00:55;101720.38;;;7.29;55.08
13050;BME280;6591;51.446;5.404;2024-02-28T04:03:25;101724.78;;;7.30;54.36
13050;BME280;6591;51.446;5.404;2024-02-28T04:05:52;101723.94;;;7.28;55.08
13050;BME280;6591;51.446;5.404;2024-02-28T04:08:20;101726.63;;;7.25;55.03
13050;BME280;6591;51.446;5.404;2024-02-28T04:10:47;101731.13;;;7.20;54.55
13050;BME280;6591;51.446;5.404;2024-02-28T04:13:17;101728.47;;;7.20;54.57
13050;BME280;6591;51.446;5.404;2024-02-28T04:15:44;101727.59;;;7.19;54.79
13050;BME280;6591;51.446;5.404;2024-02-28T04:18:13;101734.66;;;7.17;55.07
13050;BME280;6591;51.446;5.404;2024-02-28T04:20:40;101732.94;;;7.16;55.46
13050;BME280;6591;51.446;5.404;2024-02-28T04:23:07;101737.31;;;7.17;54.76
13050;BME280;6591;51.446;5.404;2024-02-28T04:25:35;101745.22;;;7.19;55.86
13050;BME280;6591;51.446;5.404;2024-02-28T04:28:03;101749.53;;;7.23;55.77
13050;BME280;6591;51.446;5.404;2024-02-28T04:30:31;101741.59;;;7.26;55.21
13050;BME280;6591;51.446;5.404;2024-02-28T04:32:58;101739.78;;;7.28;55.86
13050;BME280;6591;51.446;5.404;2024-02-28T04:35:51;101735.41;;;7.27;56.06
13050;BME280;6591;51.446;5.404;2024-02-28T04:38:25;101729.16;;;7.33;55.44
13050;BME280;6591;51.446;5.404;2024-02-28T04:40:52;101730.88;;;7.34;55.63
13050;BME280;6591;51.446;5.404;2024-02-28T04:43:20;101733.50;;;7.35;56.05
13050;BME280;6591;51.446;5.404;2024-02-28T04:45:47;101730.88;;;7.34;55.40
13050;BME280;6591;51.446;5.404;2024-02-28T04:48:14;101727.34;;;7.35;55.65
13050;BME280;6591;51.446;5.404;2024-02-28T04:50:41;101739.66;;;7.34;54.97
13050;BME280;6591;51.446;5.404;2024-02-28T04:53:08;101734.44;;;7.33;55.16
13050;BME280;6591;51.446;5.404;2024-02-28T04:55:35;101745.00;;;7.33;55.47
13050;BME280;6591;51.446;5.404;2024-02-28T04:58:03;101745.91;;;7.30;54.91
13050;BME280;6591;51.446;5.404;2024-02-28T05:00:30;101749.47;;;7.28;55.23
13050;BME280;6591;51.446;5.404;2024-02-28T05:02:57;101747.75;;;7.25;54.57
13050;BME280;6591;51.446;5.404;2024-02-28T05:05:24;101759.22;;;7.24;54.62
13050;BME280;6591;51.446;5.404;2024-02-28T05:07:52;101754.00;;;7.21;54.90
13050;BME280;6591;51.446;5.404;2024-02-28T05:10:19;101762.81;;;7.20;54.73
13050;BME280;6591;51.446;5.404;2024-02-28T05:12:46;101761.13;;;7.16;54.92
13050;BME280;6591;51.446;5.404;2024-02-28T05:15:13;101762.03;;;7.15;55.38
13050;BME280;6591;51.446;5.404;2024-02-28T05:17:40;101762.03;;;7.13;54.41
13050;BME280;6591;51.446;5.404;2024-02-28T05:20:08;101770.03;;;7.10;55.06
13050;BME280;6591;51.446;5.404;2024-02-28T05:22:36;101781.44;;;7.11;54.68
13050;BME280;6591;51.446;5.404;2024-02-28T05:25:04;101779.72;;;7.07;54.30
13050;BME280;6591;51.446;5.404;2024-02-28T05:27:33;101778.03;;;7.04;54.52
13050;BME280;6591;51.446;5.404;2024-02-28T05:30:01;101785.06;;;7.04;54.77
13050;BME280;6591;51.446;5.404;2024-02-28T05:32:29;101793.94;;;7.00;54.47
13050;BME280;6591;51.446;5.404;2024-02-28T05:34:58;101787.81;;;6.98;54.95
13050;BME280;6591;51.446;5.404;2024-02-28T05:37:26;101785.16;;;6.98;55.58
13050;BME280;6591;51.446;5.404;2024-02-28T05:39:53;101788.69;;;6.98;55.62
13050;BME280;6591;51.446;5.404;2024-02-28T05:42:21;101788.66;;;7.01;56.31
13050;BME280;6591;51.446;5.404;2024-02-28T05:44:51;101784.19;;;7.03;56.21
13050;BME280;6591;51.446;5.404;2024-02-28T05:47:19;101790.28;;;7.07;56.69
13050;BME280;6591;51.446;5.404;2024-02-28T05:49:51;101795.47;;;7.13;56.55
13050;BME280;6591;51.446;5.404;2024-02-28T05:52:18;101795.38;;;7.20;56.87
13050;BME280;6591;51.446;5.404;2024-02-28T05:54:45;101789.13;;;7.26;57.14
13050;BME280;6591;51.446;5.404;2024-02-28T05:57:13;101787.25;;;7.33;56.75
13050;BME280;6591;51.446;5.404;2024-02-28T05:59:41;101785.38;;;7.39;57.02
13050;BME280;6591;51.446;5.404;2024-02-28T06:02:08;101783.50;;;7.44;56.44
13050;BME280;6591;51.446;5.404;2024-02-28T06:04:36;101793.09;;;7.51;56.12
13050;BME280;6591;51.446;5.404;2024-02-28T06:07:06;101790.38;;;7.54;55.95
13050;BME280;6591;51.446;5.404;2024-02-28T06:09:33;101789.47;;;7.57;56.26
13050;BME280;6591;51.446;5.404;2024-02-28T06:12:00;101785.88;;;7.59;56.35
13050;BME280;6591;51.446;5.404;2024-02-28T06:14:28;101785.78;;;7.65;56.54
13050;BME280;6591;51.446;5.404;2024-02-28T06:16:55;101787.50;;;7.68;56.28
13050;BME280;6591;51.446;5.404;2024-02-28T06:19:22;101786.56;;;7.71;56.18
13050;BME280;6591;51.446;5.404;2024-02-28T06:21:50;101786.47;;;7.75;56.10
13050;BME280;6591;51.446;5.404;2024-02-28T06:24:17;101791.75;;;7.77;56.57
13050;BME280;6591;51.446;5.404;2024-02-28T06:26:44;101801.41;;;7.79;56.39
13050;BME280;6591;51.446;5.404;2024-02-28T06:29:16;101809.25;;;7.84;56.25
13050;BME280;6591;51.446;5.404;2024-02-28T06:31:43;101799.47;;;7.87;56.25
13050;BME280;6591;51.446;5.404;2024-02-28T06:34:11;101804.69;;;7.90;56.75
13050;BME280;6591;51.446;5.404;2024-02-28T06:36:40;101796.69;;;7.95;56.49
13050;BME280;6591;51.446;5.404;2024-02-28T06:39:08;101798.38;;;8.00;56.51
13050;BME280;6591;51.446;5.404;2024-02-28T06:41:35;101805.31;;;8.04;56.66
13050;BME280;6591;51.446;5.404;2024-02-28T06:44:02;101802.59;;;8.09;56.54
13050;BME280;6591;51.446;5.404;2024-02-28T06:46:29;101812.22;;;8.12;56.83
13050;BME280;6591;51.446;5.404;2024-02-28T06:48:59;101817.44;;;8.16;56.44
13050;BME280;6591;51.446;5.404;2024-02-28T06:51:27;101819.13;;;8.20;56.49
13050;BME280;6591;51.446;5.404;2024-02-28T06:53:54;101815.53;;;8.23;56.83
13050;BME280;6591;51.446;5.404;2024-02-28T06:56:21;101813.72;;;8.26;56.46
13050;BME280;6591;51.446;5.404;2024-02-28T06:58:48;101812.78;;;8.30;56.98
13050;BME280;6591;51.446;5.404;2024-02-28T07:01:18;101825.03;;;8.34;57.34
13050;BME280;6591;51.446;5.404;2024-02-28T07:03:48;101824.13;;;8.37;56.50
13050;BME280;6591;51.446;5.404;2024-02-28T07:06:15;101838.94;;;8.44;57.02
13050;BME280;6591;51.446;5.404;2024-02-28T07:08:43;101840.59;;;8.49;57.40
13050;BME280;6591;51.446;5.404;2024-02-28T07:11:14;101842.22;;;8.57;57.13
13050;BME280;6591;51.446;5.404;2024-02-28T07:13:41;101844.69;;;8.64;57.20
13050;BME280;6591;51.446;5.404;2024-02-28T07:16:09;101846.34;;;8.70;57.44
13050;BME280;6591;51.446;5.404;2024-02-28T07:18:36;101854.16;;;8.76;57.34
13050;BME280;6591;51.446;5.404;2024-02-28T07:21:03;101851.38;;;8.82;57.40
13050;BME280;6591;51.446;5.404;2024-02-28T07:23:39;101855.69;;;8.86;57.02
13050;BME280;6591;51.446;5.404;2024-02-28T07:26:07;101857.22;;;8.96;57.44
13050;BME280;6591;51.446;5.404;2024-02-28T07:28:53;101849.25;;;8.98;57.19
13050;BME280;6591;51.446;5.404;2024-02-28T07:31:23;101849.00;;;9.08;57.56
13050;BME280;6591;51.446;5.404;2024-02-28T07:33:53;101858.63;;;9.12;57.01
13050;BME280;6591;51.446;5.404;2024-02-28T07:36:22;101856.81;;;9.16;57.43
13050;BME280;6591;51.446;5.404;2024-02-28T07:38:59;101858.47;;;9.20;57.23
13050;BME280;6591;51.446;5.404;2024-02-28T07:41:26;101863.56;;;9.27;57.56
13050;BME280;6591;51.446;5.404;2024-02-28T07:43:59;101862.69;;;9.27;57.59
13050;BME280;6591;51.446;5.404;2024-02-28T07:46:26;101861.56;;;9.37;57.27
13050;BME280;6591;51.446;5.404;2024-02-28T07:48:59;101864.06;;;9.43;57.44
13050;BME280;6591;51.446;5.404;2024-02-28T07:51:28;101870.09;;;9.50;57.81
13050;BME280;6591;51.446;5.404;2024-02-28T07:53:56;101864.69;;;9.54;57.33
13050;BME280;6591;51.446;5.404;2024-02-28T07:56:29;101865.53;;;9.56;57.27
13050;BME280;6591;51.446;5.404;2024-02-28T07:58:59;101871.56;;;9.63;57.20
13050;BME280;6591;51.446;5.404;2024-02-28T08:01:28;101867.03;;;9.66;57.60
13050;BME280;6591;51.446;5.404;2024-02-28T08:04:10;101889.78;;;9.76;57.37
13050;BME280;6591;51.446;5.404;2024-02-28T08:06:45;101885.25;;;9.80;57.75
13050;BME280;6591;51.446;5.404;2024-02-28T08:09:17;101885.81;;;9.93;58.08
13050;BME280;6591;51.446;5.404;2024-02-28T08:11:52;101891.66;;;10.05;57.98
13050;BME280;6591;51.446;5.404;2024-02-28T08:14:34;101894.94;;;10.16;58.39
13050;BME280;6591;51.446;5.404;2024-02-28T08:17:15;101895.47;;;10.31;57.98
13050;BME280;6591;51.446;5.404;2024-02-28T08:19:45;101882.84;;;10.39;58.30
13050;BME280;6591;51.446;5.404;2024-02-28T08:22:28;101890.38;;;10.54;58.15
13050;BME280;6591;51.446;5.404;2024-02-28T08:25:07;101884.78;;;10.63;58.06
13050;BME280;6591;51.446;5.404;2024-02-28T08:27:47;101901.25;;;10.76;57.98
13050;BME280;6591;51.446;5.404;2024-02-28T08:30:28;101906.94;;;10.93;58.54
13050;BME280;6591;51.446;5.404;2024-02-28T08:33:01;101917.06;;;11.10;58.52
13050;BME280;6591;51.446;5.404;2024-02-28T08:35:31;101919.34;;;11.22;58.63
13050;BME280;6591;51.446;5.404;2024-02-28T08:37:59;101919.13;;;11.29;58.13
13050;BME280;6591;51.446;5.404;2024-02-28T08:40:30;101916.03;;;11.43;58.32
13050;BME280;6591;51.446;5.404;2024-02-28T08:42:57;101924.56;;;11.53;57.98
13050;BME280;6591;51.446;5.404;2024-02-28T08:45:32;101928.69;;;11.63;58.34
13050;BME280;6591;51.446;5.404;2024-02-28T08:48:14;101919.47;;;11.74;58.18
13050;BME280;6591;51.446;5.404;2024-02-28T08:51:02;101914.78;;;11.82;57.88
13050;BME280;6591;51.446;5.404;2024-02-28T08:53:47;101915.25;;;11.94;57.85
13050;BME280;6591;51.446;5.404;2024-02-28T08:59:38;101910.00;;;12.18;58.18
13050;BME280;6591;51.446;5.404;2024-02-28T09:02:19;101906.75;;;12.35;58.29
13050;BME280;6591;51.446;5.404;2024-02-28T09:05:10;101903.66;;;12.46;58.09
13050;BME280;6591;51.446;5.404;2024-02-28T09:09:27;101907.53;;;12.62;58.36
13050;BME280;6591;51.446;5.404;2024-02-28T09:12:50;101903.31;;;12.80;58.33
13050;BME280;6591;51.446;5.404;2024-02-28T09:15:18;101905.63;;;12.89;57.93
13050;BME280;6591;51.446;5.404;2024-02-28T09:17:45;101909.75;;;12.97;58.35
13050;BME280;6591;51.446;5.404;2024-02-28T09:20:12;101909.34;;;13.08;58.36
13050;BME280;6591;51.446;5.404;2024-02-28T09:22:40;101892.97;;;13.19;58.89
13050;BME280;6591;51.446;5.404;2024-02-28T09:25:07;101902.16;;;13.33;58.90
13050;BME280;6591;51.446;5.404;2024-02-28T09:27:47;101897.13;;;13.47;59.17
13050;BME280;6591;51.446;5.404;2024-02-28T09:30:14;101898.97;;;13.67;59.04
13050;BME280;6591;51.446;5.404;2024-02-28T09:32:43;101898.09;;;13.88;59.47
13050;BME280;6591;51.446;5.404;2024-02-28T09:35:10;101885.56;;;14.11;59.63
13050;BME280;6591;51.446;5.404;2024-02-28T09:37:37;101882.69;;;14.35;59.87
13050;BME280;6591;51.446;5.404;2024-02-28T09:40:09;101876.34;;;14.58;59.25
13050;BME280;6591;51.446;5.404;2024-02-28T09:42:39;101882.38;;;14.82;59.21
13050;BME280;6591;51.446;5.404;2024-02-28T09:45:10;101881.38;;;15.03;58.88
13050;BME280;6591;51.446;5.404;2024-02-28T09:47:39;101878.84;;;15.19;58.44
13050;BME280;6591;51.446;5.404;2024-02-28T09:50:07;101885.19;;;15.35;57.95
13050;BME280;6591;51.446;5.404;2024-02-28T09:52:34;101879.31;;;15.46;57.67
13050;BME280;6591;51.446;5.404;2024-02-28T09:55:02;101877.09;;;15.55;57.35
13050;BME280;6591;51.446;5.404;2024-02-28T09:57:32;101881.84;;;15.67;57.43
13050;BME280;6591;51.446;5.404;2024-02-28T10:00:00;101882.13;;;15.80;57.43
13050;BME280;6591;51.446;5.404;2024-02-28T10:02:32;101881.41;;;15.94;57.43
13050;BME280;6591;51.446;5.404;2024-02-28T10:05:01;101879.97;;;16.04;57.00
13050;BME280;6591;51.446;5.404;2024-02-28T10:07:30;101885.59;;;16.17;57.04
13050;BME280;6591;51.446;5.404;2024-02-28T10:09:58;101888.56;;;16.28;56.93
13050;BME280;6591;51.446;5.404;2024-02-28T10:12:25;101893.28;;;16.40;56.81
13050;BME280;6591;51.446;5.404;2024-02-28T10:14:52;101884.84;;;16.47;56.44
13050;BME280;6591;51.446;5.404;2024-02-28T10:17:22;101879.84;;;16.57;56.49
13050;BME280;6591;51.446;5.404;2024-02-28T10:19:53;101879.56;;;16.63;55.98
13050;BME280;6591;51.446;5.404;2024-02-28T10:22:20;101885.69;;;16.65;55.61
13050;BME280;6591;51.446;5.404;2024-02-28T10:24:47;101885.63;;;16.67;55.65
13050;BME280;6591;51.446;5.404;2024-02-28T10:27:16;101893.59;;;16.68;55.56
13050;BME280;6591;51.446;5.404;2024-02-28T10:29:45;101888.13;;;16.70;55.78
13050;BME280;6591;51.446;5.404;2024-02-28T10:32:13;101888.03;;;16.71;55.37
13050;BME280;6591;51.446;5.404;2024-02-28T10:34:41;101888.22;;;16.68;55.32
13050;BME280;6591;51.446;5.404;2024-02-28T10:37:09;101888.13;;;16.70;55.36
13050;BME280;6591;51.446;5.404;2024-02-28T10:39:38;101886.41;;;16.69;55.31
13050;BME280;6591;51.446;5.404;2024-02-28T10:42:07;101883.72;;;16.69;55.38
13050;BME280;6591;51.446;5.404;2024-02-28T10:44:36;101885.53;;;16.68;55.73
13050;BME280;6591;51.446;5.404;2024-02-28T10:47:05;101884.41;;;16.72;55.39
13050;BME280;6591;51.446;5.404;2024-02-28T10:49:38;101873.63;;;16.74;55.89
13050;BME280;6591;51.446;5.404;2024-02-28T10:52:08;101876.81;;;16.80;55.75
13050;BME280;6591;51.446;5.404;2024-02-28T10:54:39;101870.34;;;16.84;55.93
13050;BME280;6591;51.446;5.404;2024-02-28T10:57:08;101870.63;;;16.96;56.09
13050;BME280;6591;51.446;5.404;2024-02-28T10:59:38;101863.88;;;17.04;56.27
13050;BME280;6591;51.446;5.404;2024-02-28T11:02:06;101859.91;;;17.11;56.30
13050;BME280;6591;51.446;5.404;2024-02-28T11:04:34;101857.81;;;17.16;55.94
13050;BME280;6591;51.446;5.404;2024-02-28T11:07:02;101854.69;;;17.24;56.14
13050;BME280;6591;51.446;5.404;2024-02-28T11:09:29;101859.53;;;17.33;56.59
13050;BME280;6591;51.446;5.404;2024-02-28T11:11:59;101856.16;;;17.45;56.71
13050;BME280;6591;51.446;5.404;2024-02-28T11:14:26;101858.13;;;17.57;56.54
13050;BME280;6591;51.446;5.404;2024-02-28T11:17:03;101860.13;;;17.69;56.40
13050;BME280;6591;51.446;5.404;2024-02-28T11:19:33;101859.31;;;17.83;56.63
13050;BME280;6591;51.446;5.404;2024-02-28T11:22:04;101850.78;;;17.91;56.22
13050;BME280;6591;51.446;5.404;2024-02-28T11:24:34;101858.13;;;18.03;56.30
13050;BME280;6591;51.446;5.404;2024-02-28T11:27:07;101858.34;;;18.14;56.29
13050;BME280;6591;51.446;5.404;2024-02-28T11:29:38;101863.16;;;18.23;56.12
13050;BME280;6591;51.446;5.404;2024-02-28T11:32:08;101854.44;;;18.34;56.01
13050;BME280;6591;51.446;5.404;2024-02-28T11:34:37;101856.66;;;18.41;55.88
13050;BME280;6591;51.446;5.404;2024-02-28T11:37:09;101851.66;;;18.49;55.73
13050;BME280;6591;51.446;5.404;2024-02-28T11:39:36;101844.13;;;18.56;55.56
13050;BME280;6591;51.446;5.404;2024-02-28T11:42:15;101843.03;;;18.58;55.59
13050;BME280;6591;51.446;5.404;2024-02-28T11:44:43;101840.75;;;18.67;55.82
13050;BME280;6591;51.446;5.404;2024-02-28T11:47:11;101839.69;;;18.69;55.61
13050;BME280;6591;51.446;5.404;2024-02-28T11:49:38;101836.59;;;18.75;55.63
13050;BME280;6591;51.446;5.404;2024-02-28T11:52:06;101830.94;;;18.80;55.41
13050;BME280;6591;51.446;5.404;2024-02-28T11:54:33;101827.09;;;18.84;55.25
13050;BME280;6591;51.446;5.404;2024-02-28T11:57:00;101829.59;;;18.87;55.19
13050;BME280;6591;51.446;5.404;2024-02-28T11:59:27;101827.56;;;18.90;55.00
13050;BME280;6591;51.446;5.404;2024-02-28T12:01:54;101821.13;;;18.93;54.90
13050;BME280;6591;51.446;5.404;2024-02-28T12:04:24;101819.59;;;18.89;54.88
13050;BME280;6591;51.446;5.404;2024-02-28T12:06:57;101819.59;;;18.89;54.82
13050;BME280;6591;51.446;5.404;2024-02-28T12:09:24;101818.72;;;18.88;54.85
13050;BME280;6591;51.446;5.404;2024-02-28T12:12:07;101824.13;;;18.88;54.75
13050;BME280;6591;51.446;5.404;2024-02-28T12:14:38;101818.03;;;18.85;54.34
13050;BME280;6591;51.446;5.404;2024-02-28T12:17:10;101819.22;;;18.81;54.18
13050;BME280;6591;51.446;5.404;2024-02-28T12:19:39;101817.84;;;18.74;54.29
13050;BME280;6591;51.446;5.404;2024-02-28T12:22:06;101816.34;;;18.70;54.38
13050;BME280;6591;51.446;5.404;2024-02-28T12:24:41;101817.69;;;18.63;54.16
13050;BME280;6591;51.446;5.404;2024-02-28T12:27:09;101807.13;;;18.59;54.20
13050;BME280;6591;51.446;5.404;2024-02-28T12:29:36;101808.06;;;18.58;54.44
13050;BME280;6591;51.446;5.404;2024-02-28T12:32:03;101810.00;;;18.56;54.50
13050;BME280;6591;51.446;5.404;2024-02-28T12:34:33;101809.16;;;18.56;54.69
13050;BME280;6591;51.446;5.404;2024-02-28T12:37:00;101812.72;;;18.56;54.54
13050;BME280;6591;51.446;5.404;2024-02-28T12:39:30;101810.16;;;18.53;54.40
13050;BME280;6591;51.446;5.404;2024-02-28T12:41:57;101807.69;;;18.50;54.23
13050;BME280;6591;51.446;5.404;2024-02-28T12:44:24;101803.44;;;18.46;54.21
13050;BME280;6591;51.446;5.404;2024-02-28T12:46:51;101798.38;;;18.42;54.30
13050;BME280;6591;51.446;5.404;2024-02-28T12:49:18;101798.44;;;18.40;53.98
13050;BME280;6591;51.446;5.404;2024-02-28T12:51:46;101801.31;;;18.37;54.12
13050;BME280;6591;51.446;5.404;2024-02-28T12:54:15;101801.31;;;18.37;54.26
13050;BME280;6591;51.446;5.404;2024-02-28T12:56:43;101802.31;;;18.36;54.31
13050;BME280;6591;51.446;5.404;2024-02-28T12:59:10;101802.47;;;18.33;54.35
13050;BME280;6591;51.446;5.404;2024-02-28T13:01:38;101812.28;;;18.34;54.31
13050;BME280;6591;51.446;5.404;2024-02-28T13:04:09;101798.16;;;18.31;54.32
13050;BME280;6591;51.446;5.404;2024-02-28T13:06:38;101792.50;;;18.35;54.46
13050;BME280;6591;51.446;5.404;2024-02-28T13:09:08;101795.75;;;18.40;54.58
13050;BME280;6591;51.446;5.404;2024-02-28T13:11:39;101786.38;;;18.47;54.85
13050;BME280;6591;51.446;5.404;2024-02-28T13:14:07;101787.53;;;18.57;54.97
13050;BME280;6591;51.446;5.404;2024-02-28T13:16:36;101791.66;;;18.63;54.72
13050;BME280;6591;51.446;5.404;2024-02-28T13:19:03;101789.53;;;18.68;54.67
13050;BME280;6591;51.446;5.404;2024-02-28T13:21:31;101787.59;;;18.70;54.23
13050;BME280;6591;51.446;5.404;2024-02-28T13:24:01;101789.44;;;18.70;54.33